createdAt,value
2018-11-04T00:02:22.447Z,85.09
2018-11-04T00:04:50.954Z,85.25
2018-11-04T00:07:19.467Z,84.92
2018-11-04T00:09:47.991Z,84.48
2018-11-04T00:12:16.491Z,84.88
2018-11-04T00:14:45.015Z,84.92
2018-11-04T00:17:13.577Z,85.45
2018-11-04T00:19:42.069Z,85.62
2018-11-04T00:22:10.562Z,85.34
2018-11-04T00:24:39.078Z,85.25
2018-11-04T00:27:07.638Z,85.00
2018-11-04T00:29:36.170Z,85.70
2018-11-04T00:32:04.798Z,85.58
2018-11-04T00:34:33.343Z,85.33
2018-11-04T00:37:01.824Z,85.59
2018-11-04T00:39:30.344Z,85.34
2018-11-04T00:41:59.196Z,84.98
2018-11-04T00:44:27.702Z,85.36
2018-11-04T00:46:56.239Z,85.58
2018-11-04T00:49:24.751Z,85.17
2018-11-04T00:51:53.262Z,85.51
2018-11-04T00:54:21.794Z,85.17
2018-11-04T00:56:50.306Z,85.40
2018-11-04T00:59:18.791Z,85.69
2018-11-04T01:01:48.177Z,85.76
2018-11-04T01:04:17.193Z,85.73
2018-11-04T01:06:45.890Z,85.19
2018-11-04T01:09:15.459Z,84.62
2018-11-04T01:11:43.905Z,85.02
2018-11-04T01:14:12.398Z,84.78
2018-11-04T01:16:40.933Z,84.85
2018-11-04T01:19:09.512Z,84.66
2018-11-04T01:21:38.025Z,84.42
2018-11-04T01:24:06.534Z,84.65
2018-11-04T01:26:35.031Z,84.74
2018-11-04T01:29:03.567Z,84.79
2018-11-04T01:31:32.091Z,84.22
2018-11-04T01:34:01.679Z,85.15
2018-11-04T01:36:30.174Z,85.34
2018-11-04T01:38:59.181Z,85.02
2018-11-04T01:41:27.788Z,84.67
2018-11-04T01:43:56.304Z,84.58
2018-11-04T01:46:24.783Z,84.82
2018-11-04T01:48:54.202Z,84.53
2018-11-04T01:51:22.822Z,84.57
2018-11-04T01:53:51.315Z,84.39
2018-11-04T01:56:19.813Z,84.03
2018-11-04T01:58:48.323Z,83.97
2018-11-04T02:01:16.819Z,83.69
2018-11-04T02:03:45.321Z,83.72
2018-11-04T02:06:13.819Z,83.48
2018-11-04T02:08:42.326Z,83.42
2018-11-04T02:11:10.826Z,83.46
2018-11-04T02:13:39.320Z,83.23
2018-11-04T02:16:07.864Z,83.37
2018-11-04T02:18:36.391Z,83.28
2018-11-04T02:21:05.454Z,83.34
2018-11-04T02:23:33.954Z,83.48
2018-11-04T02:26:02.486Z,83.28
2018-11-04T02:28:30.996Z,83.24
2018-11-04T02:30:59.495Z,83.11
2018-11-04T02:33:28.126Z,82.97
2018-11-04T02:35:56.659Z,82.84
2018-11-04T02:38:25.167Z,82.80
2018-11-04T02:40:53.698Z,82.55
2018-11-04T02:43:22.212Z,82.32
2018-11-04T02:45:50.686Z,82.82
2018-11-04T02:48:19.197Z,82.62
2018-11-04T02:50:47.725Z,82.63
2018-11-04T02:53:16.222Z,82.42
2018-11-04T02:55:44.735Z,82.47
2018-11-04T02:58:13.242Z,82.57
2018-11-04T03:00:41.800Z,82.36
2018-11-04T03:03:10.338Z,82.65
2018-11-04T03:05:38.838Z,82.66
2018-11-04T03:08:07.346Z,82.45
2018-11-04T03:10:35.854Z,82.13
2018-11-04T03:13:04.650Z,81.90
2018-11-04T03:15:33.147Z,82.00
2018-11-04T03:18:01.779Z,82.26
2018-11-04T03:20:30.307Z,82.05
2018-11-04T03:22:58.819Z,82.30
2018-11-04T03:25:27.330Z,82.17
2018-11-04T03:27:55.866Z,82.05
2018-11-04T03:30:24.354Z,81.71
2018-11-04T03:32:52.867Z,81.83
2018-11-04T03:35:21.375Z,82.33
2018-11-04T03:37:49.899Z,82.23
2018-11-04T03:40:18.421Z,82.03
2018-11-04T03:42:47.045Z,82.15
2018-11-04T03:45:15.543Z,81.84
2018-11-04T03:47:44.326Z,82.97
2018-11-04T03:50:13.271Z,83.31
2018-11-04T03:52:42.430Z,83.37
2018-11-04T03:55:10.932Z,83.67
2018-11-04T03:57:39.451Z,83.70
2018-11-04T04:00:11.099Z,83.28
2018-11-04T04:02:39.962Z,83.32
2018-11-04T04:05:09.378Z,82.76
2018-11-04T04:07:37.926Z,82.57
2018-11-04T04:10:07.278Z,82.41
2018-11-04T04:12:35.948Z,82.04
2018-11-04T04:15:05.279Z,82.97
2018-11-04T04:17:33.783Z,82.79
2018-11-04T04:20:02.355Z,82.49
2018-11-04T04:22:30.869Z,82.35
2018-11-04T04:24:59.378Z,82.39
2018-11-04T04:27:28.171Z,82.47
2018-11-04T04:29:56.710Z,82.54
2018-11-04T04:32:25.250Z,82.18
2018-11-04T04:34:53.754Z,83.32
2018-11-04T04:37:22.241Z,83.69
2018-11-04T04:39:50.750Z,83.89
2018-11-04T04:42:19.239Z,83.88
2018-11-04T04:44:48.440Z,83.83
2018-11-04T04:47:16.961Z,84.33
2018-11-04T04:49:45.531Z,84.78
2018-11-04T04:52:14.004Z,84.95
2018-11-04T04:54:42.525Z,84.77
2018-11-04T04:57:11.014Z,84.95
2018-11-04T04:59:39.510Z,84.89
2018-11-04T05:02:08.860Z,84.73
2018-11-04T05:04:37.378Z,85.07
2018-11-04T05:07:05.953Z,84.74
2018-11-04T05:09:34.467Z,84.90
2018-11-04T05:12:03.019Z,84.95
2018-11-04T05:14:31.535Z,85.16
2018-11-04T05:17:00.028Z,84.65
2018-11-04T05:19:28.533Z,84.71
2018-11-04T05:21:57.042Z,84.78
2018-11-04T05:24:25.570Z,84.90
2018-11-04T05:26:54.063Z,84.77
2018-11-04T05:29:22.535Z,84.04
2018-11-04T05:31:51.058Z,83.67
2018-11-04T05:34:24.910Z,83.46
2018-11-04T05:36:53.694Z,84.20
2018-11-04T05:39:22.214Z,84.59
2018-11-04T05:41:50.734Z,84.63
2018-11-04T05:44:19.206Z,84.88
2018-11-04T05:46:47.718Z,84.75
2018-11-04T05:49:16.227Z,84.81
2018-11-04T05:51:44.734Z,85.39
2018-11-04T05:54:13.227Z,86.20
2018-11-04T05:56:41.718Z,86.48
2018-11-04T05:59:10.215Z,86.47
2018-11-04T06:01:38.734Z,86.49
2018-11-04T06:04:07.359Z,86.24
2018-11-04T06:06:35.850Z,86.43
2018-11-04T06:09:06.975Z,86.39
2018-11-04T06:11:35.950Z,86.80
2018-11-04T06:14:07.067Z,87.04
2018-11-04T06:16:35.548Z,86.99
2018-11-04T06:19:04.078Z,87.07
2018-11-04T06:21:32.566Z,87.47
2018-11-04T06:24:02.318Z,87.49
2018-11-04T06:26:30.806Z,87.37
2018-11-04T06:29:00.217Z,87.34
2018-11-04T06:31:28.710Z,87.30
2018-11-04T06:33:57.272Z,86.80
2018-11-04T06:36:25.867Z,86.39
2018-11-04T06:38:54.362Z,86.54
2018-11-04T06:41:23.032Z,86.74
2018-11-04T06:49:36.581Z,86.05
2018-11-04T06:52:10.866Z,85.64
2018-11-04T06:54:39.375Z,86.01
2018-11-04T06:57:07.919Z,86.37
2018-11-04T06:59:36.859Z,86.25
2018-11-04T07:02:06.277Z,86.38
2018-11-04T07:04:34.755Z,86.18
2018-11-04T07:07:03.333Z,85.81
2018-11-04T07:09:31.832Z,85.90
2018-11-04T07:12:00.349Z,85.91
2018-11-04T07:14:28.839Z,85.63
2018-11-04T07:16:57.347Z,85.23
2018-11-04T07:19:25.844Z,85.12
2018-11-04T07:21:54.327Z,85.30
2018-11-04T07:24:22.827Z,85.78
2018-11-04T07:26:51.447Z,85.80
2018-11-04T07:29:19.936Z,85.88
2018-11-04T07:31:48.542Z,85.81
2018-11-04T07:34:17.015Z,86.05
2018-11-04T07:36:45.517Z,86.00
2018-11-04T07:39:14.323Z,86.06
2018-11-04T07:41:42.815Z,85.88
2018-11-04T07:44:11.389Z,85.68
2018-11-04T07:46:39.870Z,85.94
2018-11-04T07:49:11.305Z,85.52
2018-11-04T07:51:39.983Z,85.24
2018-11-04T07:54:08.327Z,85.40
2018-11-04T07:56:36.810Z,85.31
2018-11-04T07:59:05.542Z,85.20
2018-11-04T08:01:34.061Z,85.32
2018-11-04T08:04:02.815Z,85.38
2018-11-04T08:06:31.238Z,85.66
2018-11-04T08:09:01.251Z,85.74
2018-11-04T08:11:29.770Z,85.34
2018-11-04T08:13:58.543Z,85.25
2018-11-04T08:16:27.043Z,85.17
2018-11-04T08:18:55.539Z,85.69
2018-11-04T08:21:24.102Z,85.74
2018-11-04T08:23:52.563Z,85.26
2018-11-04T08:26:21.051Z,86.03
2018-11-04T08:28:49.559Z,86.08
2018-11-04T08:31:18.103Z,86.23
2018-11-04T08:33:46.599Z,86.60
2018-11-04T08:36:15.098Z,86.48
2018-11-04T08:38:43.575Z,86.13
2018-11-04T08:41:12.125Z,86.35
2018-11-04T08:43:40.631Z,86.55
2018-11-04T08:46:09.139Z,86.33
2018-11-04T08:48:37.678Z,86.80
2018-11-04T08:51:06.473Z,87.14
2018-11-04T08:53:35.002Z,86.91
2018-11-04T08:56:03.655Z,86.40
2018-11-04T08:58:32.549Z,86.30
2018-11-04T09:01:01.049Z,86.36
2018-11-04T09:03:29.598Z,86.21
2018-11-04T09:05:58.098Z,86.14
2018-11-04T09:08:26.603Z,85.67
2018-11-04T09:10:55.118Z,85.81
2018-11-04T09:13:23.627Z,85.86
2018-11-04T09:15:52.131Z,86.04
2018-11-04T09:18:20.650Z,85.76
2018-11-04T09:20:49.694Z,85.26
2018-11-04T09:23:18.213Z,85.57
2018-11-04T09:25:46.763Z,85.05
2018-11-04T09:28:15.278Z,85.67
2018-11-04T09:30:43.803Z,85.70
2018-11-04T09:33:12.295Z,82.76
2018-11-04T09:35:40.937Z,82.47
2018-11-04T09:38:09.390Z,82.04
2018-11-04T09:40:37.931Z,81.53
2018-11-04T09:43:06.454Z,82.22
2018-11-04T09:45:34.966Z,81.19
2018-11-04T09:48:03.534Z,81.20
2018-11-04T09:50:32.038Z,82.12
2018-11-04T09:53:00.567Z,81.69
2018-11-04T09:55:29.062Z,80.91
2018-11-04T09:57:57.579Z,81.66
2018-11-04T10:00:26.102Z,81.20
2018-11-04T10:02:54.590Z,80.67
2018-11-04T10:05:23.411Z,80.57
2018-11-04T10:07:51.904Z,75.88
2018-11-04T10:10:20.423Z,73.30
2018-11-04T10:12:48.942Z,73.88
2018-11-04T10:15:17.438Z,73.50
2018-11-04T10:17:45.978Z,72.88
2018-11-04T10:20:14.751Z,73.55
2018-11-04T10:22:43.221Z,74.14
2018-11-04T10:25:12.810Z,73.25
2018-11-04T10:27:42.150Z,73.84
2018-11-04T10:30:13.284Z,72.72
2018-11-04T10:32:41.766Z,71.66
2018-11-04T10:35:10.779Z,72.44
2018-11-04T10:37:39.871Z,74.27
2018-11-04T10:40:09.498Z,72.71
2018-11-04T10:42:38.029Z,73.04
2018-11-04T10:45:07.547Z,71.87
2018-11-04T10:47:36.046Z,74.63
2018-11-04T10:50:05.194Z,73.40
2018-11-04T10:52:33.645Z,73.95
2018-11-04T10:55:02.242Z,73.64
2018-11-04T10:57:31.223Z,74.07
2018-11-04T10:59:59.732Z,73.79
2018-11-04T11:02:29.063Z,72.70
2018-11-04T11:04:57.657Z,73.67
2018-11-04T11:07:26.154Z,74.56
2018-11-04T11:09:54.669Z,73.08
2018-11-04T11:12:23.170Z,73.29
2018-11-04T11:14:51.681Z,74.46
2018-11-04T11:17:20.190Z,74.31
2018-11-04T11:19:48.690Z,75.39
2018-11-04T11:22:17.178Z,75.65
2018-11-04T11:24:46.267Z,76.40
2018-11-04T11:27:14.794Z,75.76
2018-11-04T11:29:43.314Z,75.95
2018-11-04T11:32:11.968Z,75.60
2018-11-04T11:34:40.506Z,75.36
2018-11-04T11:37:09.110Z,76.88
2018-11-04T11:39:37.635Z,76.52
2018-11-04T11:42:06.143Z,77.20
2018-11-04T11:44:34.651Z,77.42
2018-11-04T11:47:03.787Z,77.58
2018-11-04T11:49:32.332Z,77.42
2018-11-04T11:52:00.836Z,76.53
2018-11-04T11:54:29.374Z,77.24
2018-11-04T11:56:58.255Z,77.03
2018-11-04T11:59:27.503Z,76.92
2018-11-04T12:01:55.947Z,77.23
2018-11-04T12:04:24.457Z,77.27
2018-11-04T12:06:52.981Z,77.42
2018-11-04T12:09:21.482Z,76.97
2018-11-04T12:11:50.313Z,75.27
2018-11-04T12:14:18.813Z,75.18
2018-11-04T12:16:47.327Z,74.43
2018-11-04T12:22:08.927Z,76.20
2018-11-04T12:24:37.475Z,74.26
2018-11-04T12:27:06.195Z,76.04
2018-11-04T12:29:34.874Z,75.15
2018-11-04T12:32:03.415Z,75.51
2018-11-04T12:34:32.053Z,75.92
2018-11-04T12:37:00.574Z,76.53
2018-11-04T12:39:29.091Z,74.99
2018-11-04T12:41:57.607Z,74.46
2018-11-04T12:44:26.142Z,74.75
2018-11-04T12:46:54.659Z,75.02
2018-11-04T12:49:25.466Z,74.47
2018-11-04T12:51:53.954Z,75.14
2018-11-04T12:54:22.466Z,76.74
2018-11-04T12:56:50.974Z,75.90
2018-11-04T12:59:19.455Z,74.71
2018-11-04T13:01:48.001Z,75.16
2018-11-04T13:04:16.507Z,75.37
2018-11-04T13:06:45.055Z,76.04
2018-11-04T13:09:13.570Z,76.74
2018-11-04T13:14:34.521Z,77.38
2018-11-04T13:17:03.211Z,77.04
2018-11-04T13:19:31.698Z,76.99
2018-11-04T13:22:00.218Z,75.69
2018-11-04T13:24:28.718Z,76.15
2018-11-04T13:26:57.390Z,76.32
2018-11-04T13:29:25.795Z,76.98
2018-11-04T13:31:54.298Z,77.27
2018-11-04T13:34:22.807Z,77.74
2018-11-04T13:36:51.454Z,77.03
2018-11-04T13:39:19.994Z,77.67
2018-11-04T13:41:48.547Z,78.48
2018-11-04T13:44:17.079Z,78.50
2018-11-04T13:46:45.596Z,78.92
2018-11-04T13:49:14.200Z,79.12
2018-11-04T13:51:42.674Z,79.15
2018-11-04T13:54:11.171Z,79.14
2018-11-04T13:56:39.684Z,78.72
2018-11-04T13:59:08.187Z,78.96
2018-11-04T14:01:36.718Z,78.79
2018-11-04T14:04:06.027Z,78.48
2018-11-04T14:06:34.530Z,79.22
2018-11-04T14:09:05.460Z,79.18
2018-11-04T14:11:33.988Z,79.19
2018-11-04T14:14:03.183Z,78.90
2018-11-04T14:16:32.163Z,79.15
2018-11-04T14:19:02.039Z,79.58
2018-11-04T14:21:31.094Z,79.69
2018-11-04T14:24:02.346Z,79.47
2018-11-04T14:26:30.858Z,79.53
2018-11-04T14:29:00.001Z,79.34
2018-11-04T14:31:28.505Z,79.70
2018-11-04T14:33:57.011Z,79.55
2018-11-04T14:36:25.548Z,78.43
2018-11-04T14:38:54.034Z,79.00
2018-11-04T14:41:22.566Z,78.95
2018-11-04T14:43:51.062Z,79.49
2018-11-04T14:46:19.591Z,79.41
2018-11-04T14:48:48.146Z,79.71
2018-11-04T14:51:16.643Z,80.18
2018-11-04T14:53:45.225Z,79.97
2018-11-04T14:56:13.719Z,79.69
2018-11-04T14:58:50.214Z,79.47
2018-11-04T15:01:18.762Z,79.38
2018-11-04T15:03:47.298Z,79.41
2018-11-04T15:06:15.814Z,79.30
2018-11-04T15:08:44.334Z,79.07
2018-11-04T15:11:12.931Z,79.05
2018-11-04T15:13:41.962Z,79.17
2018-11-04T15:16:10.462Z,78.34
2018-11-04T15:18:39.012Z,78.78
2018-11-04T15:21:07.527Z,78.42
2018-11-04T15:23:36.038Z,78.34
2018-11-04T15:26:04.575Z,78.06
2018-11-04T15:28:33.098Z,78.08
2018-11-04T15:31:01.656Z,77.85
2018-11-04T15:33:30.203Z,78.30
2018-11-04T15:36:11.134Z,78.46
2018-11-04T15:38:39.684Z,78.65
2018-11-04T15:41:08.215Z,78.32
2018-11-04T15:43:36.757Z,78.60
2018-11-04T15:46:05.338Z,78.77
2018-11-04T15:48:33.885Z,78.93
2018-11-04T15:51:02.447Z,78.74
2018-11-04T15:53:30.971Z,78.43
2018-11-04T15:55:59.494Z,78.36
2018-11-04T15:58:27.991Z,78.86
2018-11-04T16:00:56.531Z,78.48
2018-11-04T16:03:31.582Z,78.53
2018-11-04T16:06:00.151Z,78.43
2018-11-04T16:08:28.675Z,78.34
2018-11-04T16:10:57.207Z,77.88
2018-11-04T16:13:25.757Z,78.28
2018-11-04T16:15:54.282Z,77.69
2018-11-04T16:18:23.037Z,78.48
2018-11-04T16:20:51.445Z,78.47
2018-11-04T16:23:19.939Z,78.85
2018-11-04T16:25:48.459Z,78.96
2018-11-04T16:28:16.964Z,79.39
2018-11-04T16:30:45.478Z,78.99
2018-11-04T16:33:14.026Z,78.79
2018-11-04T16:35:42.507Z,78.53
2018-11-04T16:38:11.102Z,78.46
2018-11-04T16:40:39.633Z,78.23
2018-11-04T16:43:08.180Z,78.15
2018-11-04T16:45:36.835Z,78.25
2018-11-04T16:48:05.610Z,78.22
2018-11-04T16:50:34.145Z,78.19
2018-11-04T16:53:02.673Z,78.37
2018-11-04T16:55:31.351Z,78.24
2018-11-04T16:57:59.847Z,78.74
2018-11-04T17:00:28.366Z,78.19
2018-11-04T17:02:57.692Z,78.70
2018-11-04T17:05:26.363Z,78.41
2018-11-04T17:07:54.750Z,78.57
2018-11-04T17:10:23.403Z,79.06
2018-11-04T17:12:51.914Z,78.79
2018-11-04T17:15:20.410Z,78.79
2018-11-04T17:17:48.970Z,78.58
2018-11-04T17:20:18.526Z,78.35
2018-11-04T17:22:47.471Z,79.12
2018-11-04T17:25:15.954Z,78.71
2018-11-04T17:27:44.589Z,78.53
2018-11-04T17:30:15.427Z,79.26
2018-11-04T17:32:44.431Z,79.51
2018-11-04T17:38:05.243Z,79.25
2018-11-04T17:40:33.751Z,79.16
2018-11-04T17:43:02.444Z,79.08
2018-11-04T17:45:31.006Z,79.47
2018-11-04T17:47:59.517Z,79.16
2018-11-04T17:50:28.034Z,79.44
2018-11-04T17:52:56.531Z,79.81
2018-11-04T17:55:34.511Z,79.76
2018-11-04T17:58:03.042Z,79.71
2018-11-04T18:00:31.558Z,79.95
2018-11-04T18:03:00.119Z,79.51
2018-11-04T18:05:28.730Z,80.05
2018-11-04T18:07:57.647Z,79.94
2018-11-04T18:10:26.480Z,79.49
2018-11-04T18:12:54.994Z,79.55
2018-11-04T18:15:23.518Z,79.88
2018-11-04T18:17:52.047Z,79.92
2018-11-04T18:20:20.565Z,79.73
2018-11-04T18:22:49.068Z,80.09
2018-11-04T18:25:17.891Z,80.21
2018-11-04T18:27:46.649Z,79.88
2018-11-04T18:30:16.253Z,80.19
2018-11-04T18:32:45.484Z,80.01
2018-11-04T18:35:17.058Z,80.69
2018-11-04T18:37:45.565Z,80.99
2018-11-04T18:40:15.638Z,81.20
2018-11-04T18:42:44.951Z,81.22
2018-11-04T18:45:14.866Z,81.07
2018-11-04T18:47:43.758Z,81.00
2018-11-04T18:50:13.446Z,80.93
2018-11-04T18:52:41.984Z,80.72
2018-11-04T18:55:11.702Z,80.47
2018-11-04T18:57:40.866Z,80.89
2018-11-04T19:00:11.938Z,80.43
2018-11-04T19:02:40.471Z,80.80
2018-11-04T19:05:09.742Z,80.51
2018-11-04T19:07:38.664Z,80.86
2018-11-04T19:10:09.224Z,81.01
2018-11-04T19:12:37.849Z,81.38
2018-11-04T19:15:06.857Z,81.43
2018-11-04T19:17:35.713Z,81.44
2018-11-04T19:20:04.600Z,81.66
2018-11-04T19:22:33.195Z,81.85
2018-11-04T19:25:02.141Z,81.69
2018-11-04T19:27:30.742Z,81.86
2018-11-04T19:29:59.268Z,81.70
2018-11-04T19:32:27.759Z,81.44
2018-11-04T19:34:56.834Z,81.27
2018-11-04T19:37:25.683Z,81.46
2018-11-04T19:39:54.082Z,81.18
2018-11-04T19:42:23.012Z,81.65
2018-11-04T19:44:52.043Z,81.22
2018-11-04T19:47:20.557Z,81.46
2018-11-04T19:49:49.219Z,81.43
2018-11-04T19:52:17.718Z,81.16
2018-11-04T19:54:46.370Z,81.41
2018-11-04T19:57:15.079Z,81.09
2018-11-04T19:59:43.586Z,81.20
2018-11-04T20:02:12.274Z,81.39
2018-11-04T20:04:41.206Z,81.09
2018-11-04T20:07:09.726Z,80.85
2018-11-04T20:09:38.207Z,80.82
2018-11-04T20:12:10.855Z,80.95
2018-11-04T20:14:39.341Z,81.32
2018-11-04T20:17:07.862Z,81.48
2018-11-04T20:19:41.697Z,81.35
2018-11-04T20:22:10.012Z,81.49
2018-11-04T20:24:43.666Z,81.48
2018-11-04T20:27:12.169Z,81.58
2018-11-04T20:29:40.690Z,82.47
2018-11-04T20:32:14.655Z,82.54
2018-11-04T20:34:43.202Z,83.02
2018-11-04T20:37:11.706Z,82.59
2018-11-04T20:39:45.420Z,82.37
2018-11-04T20:42:13.948Z,82.04
2018-11-04T20:44:46.340Z,82.78
2018-11-04T20:47:15.481Z,82.63
2018-11-04T20:49:49.317Z,82.49
2018-11-04T20:52:18.410Z,82.15
2018-11-04T20:54:47.311Z,82.23
2018-11-04T20:57:21.007Z,82.27
2018-11-04T20:59:49.503Z,82.50
2018-11-04T21:02:19.059Z,82.38
2018-11-04T21:04:47.452Z,82.44
2018-11-04T21:07:15.978Z,82.43
2018-11-04T21:09:44.558Z,82.33
2018-11-04T21:12:13.003Z,82.44
2018-11-04T21:14:41.510Z,82.08
2018-11-04T21:17:10.007Z,82.01
2018-11-04T21:19:38.674Z,81.28
2018-11-04T21:22:09.879Z,82.89
2018-11-04T21:24:38.738Z,82.66
2018-11-04T21:27:07.691Z,82.96
2018-11-04T21:29:37.333Z,82.49
2018-11-04T21:32:06.158Z,82.93
2018-11-04T21:34:34.722Z,82.84
2018-11-04T21:37:04.977Z,83.00
2018-11-04T21:39:33.501Z,82.82
2018-11-04T21:42:02.260Z,82.82
2018-11-04T21:44:30.936Z,82.73
2018-11-04T21:46:59.368Z,82.26
2018-11-04T21:49:27.856Z,83.10
2018-11-04T21:51:56.352Z,82.81
2018-11-04T21:54:24.929Z,82.75
2018-11-04T21:56:53.459Z,82.81
2018-11-04T21:59:21.955Z,82.65
2018-11-04T22:01:50.459Z,82.62
2018-11-04T22:04:19.055Z,82.54
2018-11-04T22:06:48.103Z,83.07
2018-11-04T22:09:16.648Z,82.32
2018-11-04T22:11:45.150Z,82.46
2018-11-04T22:14:13.762Z,81.79
2018-11-04T22:16:42.259Z,82.18
2018-11-04T22:19:10.767Z,82.16
2018-11-04T22:21:39.266Z,82.51
2018-11-04T22:24:07.771Z,82.75
2018-11-04T22:26:36.332Z,83.06
2018-11-04T22:29:05.045Z,82.75
2018-11-04T22:31:33.551Z,82.88
2018-11-04T22:34:02.703Z,82.99
2018-11-04T22:36:31.255Z,83.12
2018-11-04T22:39:00.359Z,83.08
2018-11-04T22:41:28.851Z,82.93
2018-11-04T22:43:57.371Z,83.09
2018-11-04T22:46:25.875Z,83.26
2018-11-04T22:48:54.378Z,82.98
2018-11-04T22:51:22.899Z,82.83
2018-11-04T22:53:51.392Z,83.06
2018-11-04T22:56:20.013Z,82.49
2018-11-04T22:58:48.885Z,83.25
2018-11-04T23:01:17.423Z,83.13
2018-11-04T23:03:45.954Z,82.92
2018-11-04T23:06:14.461Z,83.09
2018-11-04T23:08:42.968Z,82.79
2018-11-04T23:11:11.479Z,83.37
2018-11-04T23:13:39.987Z,83.43
2018-11-04T23:16:08.490Z,83.35
2018-11-04T23:18:37.042Z,83.78
2018-11-04T23:21:05.876Z,83.50
2018-11-04T23:23:34.382Z,83.46
2018-11-04T23:26:02.875Z,83.43
2018-11-04T23:28:31.410Z,83.12
2018-11-04T23:30:59.922Z,83.29
2018-11-04T23:33:28.432Z,83.13
2018-11-04T23:35:56.950Z,83.01
2018-11-04T23:38:25.454Z,82.88
2018-11-04T23:40:53.954Z,82.93
2018-11-04T23:43:22.838Z,82.74
2018-11-04T23:45:51.347Z,82.84
2018-11-04T23:48:19.966Z,83.23
2018-11-04T23:50:48.515Z,82.90
2018-11-04T23:53:17.025Z,82.57
2018-11-04T23:55:45.543Z,83.41
2018-11-04T23:58:14.106Z,83.24
